sensor_id;sensor_type;location;lat;lon;timestamp;P1;durP1;ratioP1;P2;durP2;ratioP2
52186;SDS011;38161;53.020;6.598;2023-03-04T00:00:29;18.20;;;2.60;;
52186;SDS011;38161;53.020;6.598;2023-03-04T00:02:55;12.93;;;2.87;;
52186;SDS011;38161;53.020;6.598;2023-03-04T00:05:21;19.43;;;3.50;;
52186;SDS011;38161;53.020;6.598;2023-03-04T00:07:46;22.27;;;3.17;;
52186;SDS011;38161;53.020;6.598;2023-03-04T00:10:12;16.87;;;2.90;;
52186;SDS011;38161;53.020;6.598;2023-03-04T00:12:38;17.67;;;3.03;;
52186;SDS011;38161;53.020;6.598;2023-03-04T00:15:04;19.63;;;2.70;;
52186;SDS011;38161;53.020;6.598;2023-03-04T00:17:30;13.18;;;2.88;;
52186;SDS011;38161;53.020;6.598;2023-03-04T00:19:56;18.03;;;3.13;;
52186;SDS011;38161;53.020;6.598;2023-03-04T00:22:22;16.05;;;2.88;;
52186;SDS011;38161;53.020;6.598;2023-03-04T00:24:48;13.73;;;2.88;;
52186;SDS011;38161;53.020;6.598;2023-03-04T00:27:14;19.50;;;3.10;;
52186;SDS011;38161;53.020;6.598;2023-03-04T00:29:39;14.37;;;2.93;;
52186;SDS011;38161;53.020;6.598;2023-03-04T00:32:05;17.02;;;2.50;;
52186;SDS011;38161;53.020;6.598;2023-03-04T00:34:31;17.47;;;2.60;;
52186;SDS011;38161;53.020;6.598;2023-03-04T00:36:57;15.87;;;2.57;;
52186;SDS011;38161;53.020;6.598;2023-03-04T00:39:28;16.35;;;2.85;;
52186;SDS011;38161;53.020;6.598;2023-03-04T00:41:54;13.68;;;2.88;;
52186;SDS011;38161;53.020;6.598;2023-03-04T00:44:20;12.05;;;2.50;;
52186;SDS011;38161;53.020;6.598;2023-03-04T00:46:45;18.67;;;3.00;;
52186;SDS011;38161;53.020;6.598;2023-03-04T00:49:11;12.30;;;2.90;;
52186;SDS011;38161;53.020;6.598;2023-03-04T00:51:37;17.10;;;2.20;;
52186;SDS011;38161;53.020;6.598;2023-03-04T00:54:03;12.87;;;2.30;;
52186;SDS011;38161;53.020;6.598;2023-03-04T00:56:28;14.17;;;2.47;;
52186;SDS011;38161;53.020;6.598;2023-03-04T00:58:54;18.13;;;2.47;;
52186;SDS011;38161;53.020;6.598;2023-03-04T01:01:20;23.03;;;3.20;;
52186;SDS011;38161;53.020;6.598;2023-03-04T01:03:45;13.47;;;2.40;;
52186;SDS011;38161;53.020;6.598;2023-03-04T01:06:11;14.10;;;2.00;;
52186;SDS011;38161;53.020;6.598;2023-03-04T01:08:37;11.55;;;2.20;;
52186;SDS011;38161;53.020;6.598;2023-03-04T01:11:04;14.05;;;2.53;;
52186;SDS011;38161;53.020;6.598;2023-03-04T01:13:30;17.98;;;3.08;;
52186;SDS011;38161;53.020;6.598;2023-03-04T01:15:56;15.02;;;2.55;;
52186;SDS011;38161;53.020;6.598;2023-03-04T01:18:22;18.57;;;2.67;;
52186;SDS011;38161;53.020;6.598;2023-03-04T01:20:48;13.65;;;2.25;;
52186;SDS011;38161;53.020;6.598;2023-03-04T01:23:14;13.15;;;2.22;;
52186;SDS011;38161;53.020;6.598;2023-03-04T01:25:40;18.47;;;2.77;;
52186;SDS011;38161;53.020;6.598;2023-03-04T01:28:06;19.20;;;2.22;;
52186;SDS011;38161;53.020;6.598;2023-03-04T01:30:32;16.97;;;2.50;;
52186;SDS011;38161;53.020;6.598;2023-03-04T01:32:58;9.40;;;2.20;;
52186;SDS011;38161;53.020;6.598;2023-03-04T01:35:23;11.90;;;2.07;;
52186;SDS011;38161;53.020;6.598;2023-03-04T01:37:49;20.00;;;2.83;;
52186;SDS011;38161;53.020;6.598;2023-03-04T01:40:15;18.00;;;2.23;;
52186;SDS011;38161;53.020;6.598;2023-03-04T01:42:42;17.88;;;2.35;;
52186;SDS011;38161;53.020;6.598;2023-03-04T01:45:13;15.02;;;2.67;;
52186;SDS011;38161;53.020;6.598;2023-03-04T01:47:42;13.60;;;1.98;;
52186;SDS011;38161;53.020;6.598;2023-03-04T01:50:16;19.33;;;2.60;;
52186;SDS011;38161;53.020;6.598;2023-03-04T01:52:47;15.18;;;2.63;;
52186;SDS011;38161;53.020;6.598;2023-03-04T01:55:17;11.18;;;2.38;;
52186;SDS011;38161;53.020;6.598;2023-03-04T01:57:44;18.95;;;2.35;;
52186;SDS011;38161;53.020;6.598;2023-03-04T02:02:52;10.98;;;2.03;;
52186;SDS011;38161;53.020;6.598;2023-03-04T02:05:20;13.60;;;2.13;;
52186;SDS011;38161;53.020;6.598;2023-03-04T02:10:13;11.75;;;1.65;;
52186;SDS011;38161;53.020;6.598;2023-03-04T02:12:39;16.83;;;2.40;;
52186;SDS011;38161;53.020;6.598;2023-03-04T02:15:05;20.40;;;3.13;;
52186;SDS011;38161;53.020;6.598;2023-03-04T02:22:29;13.77;;;2.20;;
52186;SDS011;38161;53.020;6.598;2023-03-04T02:24:59;17.02;;;2.67;;
52186;SDS011;38161;53.020;6.598;2023-03-04T02:27:35;17.17;;;2.40;;
52186;SDS011;38161;53.020;6.598;2023-03-04T02:30:01;16.70;;;2.97;;
52186;SDS011;38161;53.020;6.598;2023-03-04T02:32:27;22.10;;;2.72;;
52186;SDS011;38161;53.020;6.598;2023-03-04T02:34:53;17.90;;;2.73;;
52186;SDS011;38161;53.020;6.598;2023-03-04T02:37:20;16.83;;;2.40;;
52186;SDS011;38161;53.020;6.598;2023-03-04T02:39:46;14.55;;;2.22;;
52186;SDS011;38161;53.020;6.598;2023-03-04T02:42:13;16.38;;;2.28;;
52186;SDS011;38161;53.020;6.598;2023-03-04T02:44:40;11.70;;;2.15;;
52186;SDS011;38161;53.020;6.598;2023-03-04T02:47:10;11.18;;;2.17;;
52186;SDS011;38161;53.020;6.598;2023-03-04T02:49:38;10.77;;;1.67;;
52186;SDS011;38161;53.020;6.598;2023-03-04T02:54:38;16.55;;;2.10;;
52186;SDS011;38161;53.020;6.598;2023-03-04T02:57:06;17.17;;;2.72;;
52186;SDS011;38161;53.020;6.598;2023-03-04T02:59:33;11.23;;;2.17;;
52186;SDS011;38161;53.020;6.598;2023-03-04T03:02:00;14.57;;;2.03;;
52186;SDS011;38161;53.020;6.598;2023-03-04T03:04:25;9.40;;;1.93;;
52186;SDS011;38161;53.020;6.598;2023-03-04T03:06:52;15.32;;;2.42;;
52186;SDS011;38161;53.020;6.598;2023-03-04T03:09:18;15.45;;;2.00;;
52186;SDS011;38161;53.020;6.598;2023-03-04T03:11:44;14.75;;;2.13;;
52186;SDS011;38161;53.020;6.598;2023-03-04T03:14:10;15.18;;;2.08;;
52186;SDS011;38161;53.020;6.598;2023-03-04T03:16:36;10.60;;;1.90;;
52186;SDS011;38161;53.020;6.598;2023-03-04T03:19:02;10.80;;;1.93;;
52186;SDS011;38161;53.020;6.598;2023-03-04T03:21:28;12.45;;;2.17;;
52186;SDS011;38161;53.020;6.598;2023-03-04T03:23:54;11.25;;;2.80;;
52186;SDS011;38161;53.020;6.598;2023-03-04T03:26:20;15.20;;;3.00;;
52186;SDS011;38161;53.020;6.598;2023-03-04T03:28:46;15.80;;;2.08;;
52186;SDS011;38161;53.020;6.598;2023-03-04T03:31:12;13.02;;;2.13;;
52186;SDS011;38161;53.020;6.598;2023-03-04T03:33:38;16.45;;;2.50;;
52186;SDS011;38161;53.020;6.598;2023-03-04T03:36:04;9.33;;;2.00;;
52186;SDS011;38161;53.020;6.598;2023-03-04T03:38:30;13.40;;;2.08;;
52186;SDS011;38161;53.020;6.598;2023-03-04T03:40:56;17.07;;;2.23;;
52186;SDS011;38161;53.020;6.598;2023-03-04T03:43:21;14.97;;;2.10;;
52186;SDS011;38161;53.020;6.598;2023-03-04T03:45:47;14.27;;;2.03;;
52186;SDS011;38161;53.020;6.598;2023-03-04T03:48:13;9.60;;;1.98;;
52186;SDS011;38161;53.020;6.598;2023-03-04T03:50:39;10.67;;;1.90;;
52186;SDS011;38161;53.020;6.598;2023-03-04T03:53:05;14.03;;;1.90;;
52186;SDS011;38161;53.020;6.598;2023-03-04T03:55:31;12.53;;;1.97;;
52186;SDS011;38161;53.020;6.598;2023-03-04T03:57:57;10.02;;;2.10;;
52186;SDS011;38161;53.020;6.598;2023-03-04T04:00:23;7.83;;;1.87;;
52186;SDS011;38161;53.020;6.598;2023-03-04T04:02:49;8.13;;;1.80;;
52186;SDS011;38161;53.020;6.598;2023-03-04T04:05:14;16.73;;;2.20;;
52186;SDS011;38161;53.020;6.598;2023-03-04T04:07:40;16.15;;;2.20;;
52186;SDS011;38161;53.020;6.598;2023-03-04T04:10:07;11.67;;;1.80;;
52186;SDS011;38161;53.020;6.598;2023-03-04T04:12:33;11.85;;;1.95;;
52186;SDS011;38161;53.020;6.598;2023-03-04T04:14:59;14.70;;;2.13;;
52186;SDS011;38161;53.020;6.598;2023-03-04T04:17:25;10.30;;;2.17;;
52186;SDS011;38161;53.020;6.598;2023-03-04T04:19:51;14.75;;;2.17;;
52186;SDS011;38161;53.020;6.598;2023-03-04T04:22:17;15.30;;;1.93;;
52186;SDS011;38161;53.020;6.598;2023-03-04T04:24:45;10.52;;;1.90;;
52186;SDS011;38161;53.020;6.598;2023-03-04T04:27:11;14.13;;;1.70;;
52186;SDS011;38161;53.020;6.598;2023-03-04T04:29:37;15.57;;;2.08;;
52186;SDS011;38161;53.020;6.598;2023-03-04T04:32:03;13.23;;;2.30;;
52186;SDS011;38161;53.020;6.598;2023-03-04T04:34:29;13.25;;;2.15;;
52186;SDS011;38161;53.020;6.598;2023-03-04T04:36:55;8.60;;;2.10;;
52186;SDS011;38161;53.020;6.598;2023-03-04T04:39:20;12.47;;;1.90;;
52186;SDS011;38161;53.020;6.598;2023-03-04T04:41:46;15.83;;;2.40;;
52186;SDS011;38161;53.020;6.598;2023-03-04T04:44:12;9.95;;;1.92;;
52186;SDS011;38161;53.020;6.598;2023-03-04T04:46:39;16.73;;;2.83;;
52186;SDS011;38161;53.020;6.598;2023-03-04T04:49:05;12.73;;;2.20;;
52186;SDS011;38161;53.020;6.598;2023-03-04T04:51:33;9.73;;;1.80;;
52186;SDS011;38161;53.020;6.598;2023-03-04T04:54:00;11.13;;;2.17;;
52186;SDS011;38161;53.020;6.598;2023-03-04T04:56:26;19.73;;;2.50;;
52186;SDS011;38161;53.020;6.598;2023-03-04T04:58:53;15.95;;;2.67;;
52186;SDS011;38161;53.020;6.598;2023-03-04T05:01:21;10.98;;;2.05;;
52186;SDS011;38161;53.020;6.598;2023-03-04T05:03:47;11.50;;;2.05;;
52186;SDS011;38161;53.020;6.598;2023-03-04T05:06:17;8.13;;;1.95;;
52186;SDS011;38161;53.020;6.598;2023-03-04T05:08:44;12.57;;;2.17;;
52186;SDS011;38161;53.020;6.598;2023-03-04T05:11:10;12.17;;;2.40;;
52186;SDS011;38161;53.020;6.598;2023-03-04T05:13:36;13.07;;;1.90;;
52186;SDS011;38161;53.020;6.598;2023-03-04T05:16:01;9.23;;;1.43;;
52186;SDS011;38161;53.020;6.598;2023-03-04T05:18:28;13.80;;;1.85;;
52186;SDS011;38161;53.020;6.598;2023-03-04T05:20:55;11.50;;;2.20;;
52186;SDS011;38161;53.020;6.598;2023-03-04T05:23:25;10.20;;;2.25;;
52186;SDS011;38161;53.020;6.598;2023-03-04T05:25:53;15.50;;;2.17;;
52186;SDS011;38161;53.020;6.598;2023-03-04T05:28:19;9.43;;;1.70;;
52186;SDS011;38161;53.020;6.598;2023-03-04T05:30:45;11.43;;;1.98;;
52186;SDS011;38161;53.020;6.598;2023-03-04T05:33:11;12.00;;;1.67;;
52186;SDS011;38161;53.020;6.598;2023-03-04T05:35:38;7.75;;;1.88;;
52186;SDS011;38161;53.020;6.598;2023-03-04T05:38:06;8.27;;;1.90;;
52186;SDS011;38161;53.020;6.598;2023-03-04T05:40:34;8.80;;;1.65;;
52186;SDS011;38161;53.020;6.598;2023-03-04T05:43:00;11.95;;;1.63;;
52186;SDS011;38161;53.020;6.598;2023-03-04T05:45:26;9.48;;;1.73;;
52186;SDS011;38161;53.020;6.598;2023-03-04T05:47:52;8.50;;;1.90;;
52186;SDS011;38161;53.020;6.598;2023-03-04T05:50:18;11.93;;;1.83;;
52186;SDS011;38161;53.020;6.598;2023-03-04T05:52:45;9.05;;;1.90;;
52186;SDS011;38161;53.020;6.598;2023-03-04T05:55:11;9.00;;;1.75;;
52186;SDS011;38161;53.020;6.598;2023-03-04T05:57:37;10.60;;;1.77;;
52186;SDS011;38161;53.020;6.598;2023-03-04T06:00:03;7.90;;;1.93;;
52186;SDS011;38161;53.020;6.598;2023-03-04T06:02:33;10.57;;;1.98;;
52186;SDS011;38161;53.020;6.598;2023-03-04T06:05:00;9.38;;;1.40;;
52186;SDS011;38161;53.020;6.598;2023-03-04T06:07:26;9.38;;;1.92;;
52186;SDS011;38161;53.020;6.598;2023-03-04T06:09:52;6.27;;;1.70;;
52186;SDS011;38161;53.020;6.598;2023-03-04T06:12:18;9.43;;;2.13;;
52186;SDS011;38161;53.020;6.598;2023-03-04T06:14:43;7.17;;;2.03;;
52186;SDS011;38161;53.020;6.598;2023-03-04T06:17:09;10.85;;;1.75;;
52186;SDS011;38161;53.020;6.598;2023-03-04T06:19:35;7.93;;;1.80;;
52186;SDS011;38161;53.020;6.598;2023-03-04T06:22:02;8.95;;;2.20;;
52186;SDS011;38161;53.020;6.598;2023-03-04T06:24:29;9.48;;;2.10;;
52186;SDS011;38161;53.020;6.598;2023-03-04T06:26:54;8.50;;;1.83;;
52186;SDS011;38161;53.020;6.598;2023-03-04T06:29:20;12.67;;;1.70;;
52186;SDS011;38161;53.020;6.598;2023-03-04T06:31:47;13.52;;;3.08;;
52186;SDS011;38161;53.020;6.598;2023-03-04T06:34:13;9.18;;;1.80;;
52186;SDS011;38161;53.020;6.598;2023-03-04T06:36:39;10.48;;;2.20;;
52186;SDS011;38161;53.020;6.598;2023-03-04T06:39:05;12.55;;;1.65;;
52186;SDS011;38161;53.020;6.598;2023-03-04T06:41:32;9.48;;;1.85;;
52186;SDS011;38161;53.020;6.598;2023-03-04T06:43:58;10.27;;;1.83;;
52186;SDS011;38161;53.020;6.598;2023-03-04T06:46:24;8.93;;;1.73;;
52186;SDS011;38161;53.020;6.598;2023-03-04T06:48:50;9.65;;;2.03;;
52186;SDS011;38161;53.020;6.598;2023-03-04T06:51:16;9.23;;;2.30;;
52186;SDS011;38161;53.020;6.598;2023-03-04T06:53:42;10.52;;;1.80;;
52186;SDS011;38161;53.020;6.598;2023-03-04T06:56:09;7.67;;;1.67;;
52186;SDS011;38161;53.020;6.598;2023-03-04T06:58:36;10.70;;;2.00;;
52186;SDS011;38161;53.020;6.598;2023-03-04T07:01:12;6.57;;;1.47;;
52186;SDS011;38161;53.020;6.598;2023-03-04T07:03:41;11.95;;;1.52;;
52186;SDS011;38161;53.020;6.598;2023-03-04T07:06:11;7.47;;;2.13;;
52186;SDS011;38161;53.020;6.598;2023-03-04T07:08:38;7.38;;;1.52;;
52186;SDS011;38161;53.020;6.598;2023-03-04T07:13:31;12.95;;;1.73;;
52186;SDS011;38161;53.020;6.598;2023-03-04T07:15:59;16.30;;;2.33;;
52186;SDS011;38161;53.020;6.598;2023-03-04T07:18:25;12.75;;;1.58;;
52186;SDS011;38161;53.020;6.598;2023-03-04T07:20:51;13.50;;;1.87;;
52186;SDS011;38161;53.020;6.598;2023-03-04T07:23:17;9.82;;;2.10;;
52186;SDS011;38161;53.020;6.598;2023-03-04T07:25:43;9.07;;;1.90;;
52186;SDS011;38161;53.020;6.598;2023-03-04T07:28:10;10.07;;;1.60;;
52186;SDS011;38161;53.020;6.598;2023-03-04T07:30:36;13.23;;;1.85;;
52186;SDS011;38161;53.020;6.598;2023-03-04T07:33:02;10.33;;;2.03;;
52186;SDS011;38161;53.020;6.598;2023-03-04T07:35:27;9.23;;;1.30;;
52186;SDS011;38161;53.020;6.598;2023-03-04T07:37:53;12.45;;;1.80;;
52186;SDS011;38161;53.020;6.598;2023-03-04T07:40:19;9.60;;;1.50;;
52186;SDS011;38161;53.020;6.598;2023-03-04T07:42:49;9.95;;;1.52;;
52186;SDS011;38161;53.020;6.598;2023-03-04T07:45:19;8.95;;;1.80;;
52186;SDS011;38161;53.020;6.598;2023-03-04T07:47:46;6.80;;;1.38;;
52186;SDS011;38161;53.020;6.598;2023-03-04T07:50:12;10.32;;;1.83;;
52186;SDS011;38161;53.020;6.598;2023-03-04T07:52:42;6.60;;;1.55;;
52186;SDS011;38161;53.020;6.598;2023-03-04T07:55:10;6.38;;;1.08;;
52186;SDS011;38161;53.020;6.598;2023-03-04T07:57:38;7.75;;;1.17;;
52186;SDS011;38161;53.020;6.598;2023-03-04T08:00:05;7.70;;;1.40;;
52186;SDS011;38161;53.020;6.598;2023-03-04T08:02:31;12.18;;;1.92;;
52186;SDS011;38161;53.020;6.598;2023-03-04T08:04:57;7.20;;;1.47;;
52186;SDS011;38161;53.020;6.598;2023-03-04T08:07:22;9.60;;;1.93;;
52186;SDS011;38161;53.020;6.598;2023-03-04T08:09:48;6.67;;;1.40;;
52186;SDS011;38161;53.020;6.598;2023-03-04T08:12:14;8.50;;;1.47;;
52186;SDS011;38161;53.020;6.598;2023-03-04T08:14:40;8.43;;;1.30;;
52186;SDS011;38161;53.020;6.598;2023-03-04T08:17:05;9.80;;;1.43;;
52186;SDS011;38161;53.020;6.598;2023-03-04T08:19:31;12.43;;;1.97;;
52186;SDS011;38161;53.020;6.598;2023-03-04T08:21:57;11.33;;;2.00;;
52186;SDS011;38161;53.020;6.598;2023-03-04T08:24:23;15.37;;;2.17;;
52186;SDS011;38161;53.020;6.598;2023-03-04T08:26:48;9.97;;;1.67;;
52186;SDS011;38161;53.020;6.598;2023-03-04T08:29:17;9.27;;;1.75;;
52186;SDS011;38161;53.020;6.598;2023-03-04T08:31:45;13.20;;;1.98;;
52186;SDS011;38161;53.020;6.598;2023-03-04T08:34:12;14.57;;;2.63;;
52186;SDS011;38161;53.020;6.598;2023-03-04T08:39:07;15.50;;;2.50;;
52186;SDS011;38161;53.020;6.598;2023-03-04T08:41:35;17.23;;;2.75;;
52186;SDS011;38161;53.020;6.598;2023-03-04T08:44:01;20.17;;;3.60;;
52186;SDS011;38161;53.020;6.598;2023-03-04T08:46:27;16.90;;;2.72;;
52186;SDS011;38161;53.020;6.598;2023-03-04T08:48:53;21.42;;;2.83;;
52186;SDS011;38161;53.020;6.598;2023-03-04T08:51:19;19.50;;;2.83;;
52186;SDS011;38161;53.020;6.598;2023-03-04T08:53:45;22.70;;;3.15;;
52186;SDS011;38161;53.020;6.598;2023-03-04T08:56:11;22.25;;;4.07;;
52186;SDS011;38161;53.020;6.598;2023-03-04T08:58:38;16.20;;;3.13;;
52186;SDS011;38161;53.020;6.598;2023-03-04T09:01:06;17.98;;;2.97;;
52186;SDS011;38161;53.020;6.598;2023-03-04T09:03:33;16.75;;;2.92;;
52186;SDS011;38161;53.020;6.598;2023-03-04T09:06:00;20.23;;;2.88;;
52186;SDS011;38161;53.020;6.598;2023-03-04T09:08:27;15.00;;;2.67;;
52186;SDS011;38161;53.020;6.598;2023-03-04T09:10:53;17.70;;;2.53;;
52186;SDS011;38161;53.020;6.598;2023-03-04T09:13:22;10.68;;;2.50;;
52186;SDS011;38161;53.020;6.598;2023-03-04T09:15:50;22.65;;;3.13;;
52186;SDS011;38161;53.020;6.598;2023-03-04T09:18:16;23.33;;;3.03;;
52186;SDS011;38161;53.020;6.598;2023-03-04T09:20:44;20.73;;;3.13;;
52186;SDS011;38161;53.020;6.598;2023-03-04T09:23:10;25.77;;;3.40;;
52186;SDS011;38161;53.020;6.598;2023-03-04T09:25:37;23.40;;;3.33;;
52186;SDS011;38161;53.020;6.598;2023-03-04T09:28:03;18.45;;;3.15;;
52186;SDS011;38161;53.020;6.598;2023-03-04T09:30:30;16.50;;;2.78;;
52186;SDS011;38161;53.020;6.598;2023-03-04T09:32:56;22.40;;;3.40;;
52186;SDS011;38161;53.020;6.598;2023-03-04T09:35:22;20.37;;;4.17;;
52186;SDS011;38161;53.020;6.598;2023-03-04T09:37:48;19.48;;;3.03;;
52186;SDS011;38161;53.020;6.598;2023-03-04T09:40:16;22.27;;;3.55;;
52186;SDS011;38161;53.020;6.598;2023-03-04T09:43:01;17.92;;;2.88;;
52186;SDS011;38161;53.020;6.598;2023-03-04T09:45:48;22.05;;;3.88;;
52186;SDS011;38161;53.020;6.598;2023-03-04T09:48:19;21.50;;;3.40;;
52186;SDS011;38161;53.020;6.598;2023-03-04T09:50:50;11.68;;;2.60;;
52186;SDS011;38161;53.020;6.598;2023-03-04T09:53:54;21.15;;;3.08;;
52186;SDS011;38161;53.020;6.598;2023-03-04T09:56:40;14.95;;;2.17;;
52186;SDS011;38161;53.020;6.598;2023-03-04T09:59:27;17.85;;;2.60;;
52186;SDS011;38161;53.020;6.598;2023-03-04T10:01:58;11.73;;;2.28;;
52186;SDS011;38161;53.020;6.598;2023-03-04T10:04:35;11.50;;;1.80;;
52186;SDS011;38161;53.020;6.598;2023-03-04T10:07:18;13.25;;;2.15;;
52186;SDS011;38161;53.020;6.598;2023-03-04T10:12:36;11.10;;;1.42;;
52186;SDS011;38161;53.020;6.598;2023-03-04T10:15:07;14.52;;;2.53;;
52186;SDS011;38161;53.020;6.598;2023-03-04T10:17:55;7.05;;;1.27;;
52186;SDS011;38161;53.020;6.598;2023-03-04T10:20:32;10.32;;;2.85;;
52186;SDS011;38161;53.020;6.598;2023-03-04T10:23:24;13.05;;;2.22;;
52186;SDS011;38161;53.020;6.598;2023-03-04T10:25:52;8.43;;;1.60;;
52186;SDS011;38161;53.020;6.598;2023-03-04T10:33:50;10.85;;;1.48;;
52186;SDS011;38161;53.020;6.598;2023-03-04T10:36:34;15.67;;;1.87;;
52186;SDS011;38161;53.020;6.598;2023-03-04T10:39:09;10.25;;;1.60;;
52186;SDS011;38161;53.020;6.598;2023-03-04T10:41:41;11.65;;;2.30;;
52186;SDS011;38161;53.020;6.598;2023-03-04T10:46:52;11.73;;;2.10;;
52186;SDS011;38161;53.020;6.598;2023-03-04T10:49:19;18.10;;;2.45;;
52186;SDS011;38161;53.020;6.598;2023-03-04T10:51:50;9.50;;;2.08;;
52186;SDS011;38161;53.020;6.598;2023-03-04T10:54:45;14.27;;;2.42;;
52186;SDS011;38161;53.020;6.598;2023-03-04T10:57:15;15.20;;;2.80;;
52186;SDS011;38161;53.020;6.598;2023-03-04T10:59:48;20.17;;;2.78;;
52186;SDS011;38161;53.020;6.598;2023-03-04T11:02:31;14.93;;;2.60;;
52186;SDS011;38161;53.020;6.598;2023-03-04T11:07:43;14.18;;;2.65;;
52186;SDS011;38161;53.020;6.598;2023-03-04T11:10:16;10.95;;;2.65;;
52186;SDS011;38161;53.020;6.598;2023-03-04T11:12:48;12.82;;;2.83;;
52186;SDS011;38161;53.020;6.598;2023-03-04T11:15:20;16.95;;;3.63;;
52186;SDS011;38161;53.020;6.598;2023-03-04T11:17:56;13.63;;;2.67;;
52186;SDS011;38161;53.020;6.598;2023-03-04T11:20:49;15.07;;;2.83;;
52186;SDS011;38161;53.020;6.598;2023-03-04T11:26:02;19.25;;;2.90;;
52186;SDS011;38161;53.020;6.598;2023-03-04T11:28:54;17.25;;;2.10;;
52186;SDS011;38161;53.020;6.598;2023-03-04T11:31:27;20.52;;;2.70;;
52186;SDS011;38161;53.020;6.598;2023-03-04T11:34:02;16.30;;;2.53;;
52186;SDS011;38161;53.020;6.598;2023-03-04T11:39:10;14.30;;;2.55;;
52186;SDS011;38161;53.020;6.598;2023-03-04T11:41:57;15.57;;;2.72;;
52186;SDS011;38161;53.020;6.598;2023-03-04T11:44:31;15.82;;;3.13;;
52186;SDS011;38161;53.020;6.598;2023-03-04T11:55:47;23.15;;;3.10;;
52186;SDS011;38161;53.020;6.598;2023-03-04T11:58:20;16.52;;;2.55;;
52186;SDS011;38161;53.020;6.598;2023-03-04T12:01:00;11.55;;;2.33;;
52186;SDS011;38161;53.020;6.598;2023-03-04T12:14:38;16.05;;;2.65;;
52186;SDS011;38161;53.020;6.598;2023-03-04T12:17:47;14.25;;;2.45;;
52186;SDS011;38161;53.020;6.598;2023-03-04T12:20:26;11.02;;;2.33;;
52186;SDS011;38161;53.020;6.598;2023-03-04T12:23:21;16.88;;;3.08;;
52186;SDS011;38161;53.020;6.598;2023-03-04T12:26:23;17.98;;;2.88;;
52186;SDS011;38161;53.020;6.598;2023-03-04T12:48:30;16.75;;;4.22;;
52186;SDS011;38161;53.020;6.598;2023-03-04T12:56:05;11.45;;;2.60;;
52186;SDS011;38161;53.020;6.598;2023-03-04T12:58:31;12.70;;;2.45;;
52186;SDS011;38161;53.020;6.598;2023-03-04T13:01:10;12.63;;;2.95;;
52186;SDS011;38161;53.020;6.598;2023-03-04T13:04:08;16.50;;;3.08;;
52186;SDS011;38161;53.020;6.598;2023-03-04T13:10:04;16.98;;;3.20;;
52186;SDS011;38161;53.020;6.598;2023-03-04T13:12:47;17.52;;;3.03;;
52186;SDS011;38161;53.020;6.598;2023-03-04T13:17:52;16.13;;;3.20;;
52186;SDS011;38161;53.020;6.598;2023-03-04T13:20:38;14.77;;;3.35;;
52186;SDS011;38161;53.020;6.598;2023-03-04T13:35:48;12.05;;;2.28;;
52186;SDS011;38161;53.020;6.598;2023-03-04T13:56:23;9.33;;;1.80;;
52186;SDS011;38161;53.020;6.598;2023-03-04T14:06:43;11.05;;;2.40;;
52186;SDS011;38161;53.020;6.598;2023-03-04T14:09:26;10.20;;;2.00;;
52186;SDS011;38161;53.020;6.598;2023-03-04T14:11:57;11.60;;;2.58;;
52186;SDS011;38161;53.020;6.598;2023-03-04T14:14:31;12.38;;;2.10;;
52186;SDS011;38161;53.020;6.598;2023-03-04T14:17:16;9.63;;;1.80;;
52186;SDS011;38161;53.020;6.598;2023-03-04T14:19:45;11.13;;;2.50;;
52186;SDS011;38161;53.020;6.598;2023-03-04T14:22:32;17.63;;;2.58;;
52186;SDS011;38161;53.020;6.598;2023-03-04T14:25:04;14.23;;;2.58;;
52186;SDS011;38161;53.020;6.598;2023-03-04T14:27:43;17.90;;;2.47;;
52186;SDS011;38161;53.020;6.598;2023-03-04T14:30:24;17.08;;;3.42;;
52186;SDS011;38161;53.020;6.598;2023-03-04T14:32:51;21.65;;;3.25;;
52186;SDS011;38161;53.020;6.598;2023-03-04T14:35:22;12.93;;;2.42;;
52186;SDS011;38161;53.020;6.598;2023-03-04T14:40:47;10.75;;;2.17;;
52186;SDS011;38161;53.020;6.598;2023-03-04T14:43:35;13.82;;;2.92;;
52186;SDS011;38161;53.020;6.598;2023-03-04T14:46:07;16.23;;;2.25;;
52186;SDS011;38161;53.020;6.598;2023-03-04T14:48:38;16.17;;;3.22;;
52186;SDS011;38161;53.020;6.598;2023-03-04T14:51:29;12.73;;;2.53;;
52186;SDS011;38161;53.020;6.598;2023-03-04T14:54:06;18.17;;;2.72;;
52186;SDS011;38161;53.020;6.598;2023-03-04T14:56:49;10.27;;;2.00;;
52186;SDS011;38161;53.020;6.598;2023-03-04T14:59:14;11.32;;;2.80;;
52186;SDS011;38161;53.020;6.598;2023-03-04T15:01:40;22.45;;;2.50;;
52186;SDS011;38161;53.020;6.598;2023-03-04T15:04:07;14.87;;;2.30;;
52186;SDS011;38161;53.020;6.598;2023-03-04T15:06:38;9.70;;;2.28;;
52186;SDS011;38161;53.020;6.598;2023-03-04T15:09:20;13.02;;;2.38;;
52186;SDS011;38161;53.020;6.598;2023-03-04T15:11:50;10.35;;;2.33;;
52186;SDS011;38161;53.020;6.598;2023-03-04T15:17:29;11.38;;;2.85;;
52186;SDS011;38161;53.020;6.598;2023-03-04T15:22:32;14.05;;;2.45;;
52186;SDS011;38161;53.020;6.598;2023-03-04T15:24:59;14.20;;;2.80;;
52186;SDS011;38161;53.020;6.598;2023-03-04T15:27:26;15.10;;;2.22;;
52186;SDS011;38161;53.020;6.598;2023-03-04T15:29:53;12.93;;;2.63;;
52186;SDS011;38161;53.020;6.598;2023-03-04T15:32:26;14.02;;;2.20;;
52186;SDS011;38161;53.020;6.598;2023-03-04T15:34:53;10.98;;;2.45;;
52186;SDS011;38161;53.020;6.598;2023-03-04T15:37:20;15.27;;;2.72;;
52186;SDS011;38161;53.020;6.598;2023-03-04T15:39:49;13.00;;;2.42;;
52186;SDS011;38161;53.020;6.598;2023-03-04T15:42:15;11.90;;;3.00;;
52186;SDS011;38161;53.020;6.598;2023-03-04T15:44:42;15.20;;;3.42;;
52186;SDS011;38161;53.020;6.598;2023-03-04T15:47:11;13.40;;;2.90;;
52186;SDS011;38161;53.020;6.598;2023-03-04T15:49:38;9.02;;;2.88;;
52186;SDS011;38161;53.020;6.598;2023-03-04T15:52:06;17.95;;;3.10;;
52186;SDS011;38161;53.020;6.598;2023-03-04T15:54:37;13.60;;;2.97;;
52186;SDS011;38161;53.020;6.598;2023-03-04T15:57:04;14.30;;;3.70;;
52186;SDS011;38161;53.020;6.598;2023-03-04T15:59:37;13.88;;;2.65;;
52186;SDS011;38161;53.020;6.598;2023-03-04T16:02:04;15.13;;;2.97;;
52186;SDS011;38161;53.020;6.598;2023-03-04T16:04:44;14.73;;;4.00;;
52186;SDS011;38161;53.020;6.598;2023-03-04T16:07:12;15.13;;;3.50;;
52186;SDS011;38161;53.020;6.598;2023-03-04T16:09:42;11.25;;;2.75;;
52186;SDS011;38161;53.020;6.598;2023-03-04T16:12:11;15.82;;;3.10;;
52186;SDS011;38161;53.020;6.598;2023-03-04T16:14:37;19.38;;;3.10;;
52186;SDS011;38161;53.020;6.598;2023-03-04T16:17:04;12.43;;;2.70;;
52186;SDS011;38161;53.020;6.598;2023-03-04T16:19:29;7.90;;;2.03;;
52186;SDS011;38161;53.020;6.598;2023-03-04T16:21:55;8.57;;;1.70;;
52186;SDS011;38161;53.020;6.598;2023-03-04T16:24:21;10.30;;;2.03;;
52186;SDS011;38161;53.020;6.598;2023-03-04T16:26:47;8.70;;;2.13;;
52186;SDS011;38161;53.020;6.598;2023-03-04T16:29:14;7.40;;;2.05;;
52186;SDS011;38161;53.020;6.598;2023-03-04T16:31:40;11.98;;;2.78;;
52186;SDS011;38161;53.020;6.598;2023-03-04T16:34:06;11.63;;;2.10;;
52186;SDS011;38161;53.020;6.598;2023-03-04T16:36:31;7.43;;;2.45;;
52186;SDS011;38161;53.020;6.598;2023-03-04T16:39:02;11.75;;;2.67;;
52186;SDS011;38161;53.020;6.598;2023-03-04T16:41:31;7.85;;;2.03;;
52186;SDS011;38161;53.020;6.598;2023-03-04T16:44:00;11.07;;;2.83;;
52186;SDS011;38161;53.020;6.598;2023-03-04T16:46:26;11.95;;;2.10;;
52186;SDS011;38161;53.020;6.598;2023-03-04T16:48:53;9.88;;;2.10;;
52186;SDS011;38161;53.020;6.598;2023-03-04T16:51:19;11.10;;;2.38;;
52186;SDS011;38161;53.020;6.598;2023-03-04T16:53:47;16.88;;;2.58;;
52186;SDS011;38161;53.020;6.598;2023-03-04T16:56:21;13.20;;;3.45;;
52186;SDS011;38161;53.020;6.598;2023-03-04T16:58:47;8.23;;;3.42;;
52186;SDS011;38161;53.020;6.598;2023-03-04T17:01:20;14.30;;;3.08;;
52186;SDS011;38161;53.020;6.598;2023-03-04T17:03:48;12.75;;;3.10;;